Time;durP1;ratioP1;P1;durP2;ratioP2;P2;SDS_P1;SDS_P2;PMS_P1;PMS_P2;Temp;Humidity;BMP_temperature;BMP_pressure;BME280_temperature;BME280_humidity;BME280_pressure;Samples;Min_cycle;Max_cycle;Signal;HPM_P1;HPM_P2
2023/09/04 00:01:26;;;;;;;2.65;1.50;;;;;;;24.60;51.70;98162.38;5008459;28;20179;-58
2023/09/04 00:03:51;;;;;;;2.33;1.50;;;;;;;24.69;52.15;98170.97;5008382;28;20750;-58
2023/09/04 00:06:16;;;;;;;1.70;1.60;;;;;;;24.42;52.75;98146.22;5007703;28;20254;-58
2023/09/04 00:08:42;;;;;;;1.77;1.67;;;;;;;24.38;53.11;98152.09;4988509;28;20274;-58
2023/09/04 00:11:08;;;;;;;1.73;1.60;;;;;;;24.49;52.71;98159.47;4987821;28;20238;-57
2023/09/04 00:13:33;;;;;;;1.48;1.40;;;;;;;24.66;53.70;98177.47;4991371;28;20211;-57
2023/09/04 00:15:59;;;;;;;3.58;2.05;;;;;;;24.72;60.71;98170.56;5006387;28;20555;-57
2023/09/04 00:18:24;;;;;;;2.70;2.30;;;;;;;24.40;64.72;98135.03;5011886;28;20277;-57
2023/09/04 00:20:52;;;;;;;3.33;2.72;;;;;;;24.35;67.06;98140.09;5011785;28;20277;-57
2023/09/04 00:23:17;;;;;;;3.47;2.58;;;;;;;24.44;68.62;98165.34;5011751;28;20190;-57
2023/09/04 00:25:43;;;;;;;2.97;2.42;;;;;;;24.09;70.60;98128.59;5011780;28;20669;-57
2023/09/04 00:28:09;;;;;;;2.72;2.53;;;;;;;23.94;70.33;98122.59;5011595;28;20281;-58
2023/09/04 00:30:34;;;;;;;2.58;2.38;;;;;;;24.01;69.75;98135.88;5011616;28;20293;-57
2023/09/04 00:32:59;;;;;;;4.18;2.58;;;;;;;23.79;70.74;98135.13;5011557;28;20261;-58
2023/09/04 00:35:25;;;;;;;2.92;2.25;;;;;;;23.44;70.22;98106.22;5011506;28;20194;-58
2023/09/04 00:37:50;;;;;;;2.28;2.08;;;;;;;23.35;69.45;98110.81;5011585;28;20248;-58
2023/09/04 00:40:16;;;;;;;2.42;2.20;;;;;;;23.38;69.55;98126.31;5013096;28;20191;-58
2023/09/04 00:42:41;;;;;;;2.88;2.63;;;;;;;23.24;70.67;98123.75;5013982;28;20586;-58
2023/09/04 00:45:11;;;;;;;2.13;2.03;;;;;;;22.75;73.00;98081.47;5014136;28;20209;-58
2023/09/04 00:47:44;;;;;;;4.13;2.28;;;;;;;22.87;71.45;98101.06;5013492;28;20521;-58
2023/09/04 00:50:13;;;;;;;3.00;2.70;;;;;;;22.55;69.51;98093.63;5030818;28;20624;-58
2023/09/04 00:52:39;;;;;;;2.92;2.10;;;;;;;22.45;67.36;98073.88;5031243;28;20182;-58
2023/09/04 00:55:05;;;;;;;3.47;2.60;;;;;;;22.47;66.28;98077.13;5030930;28;20269;-58
2023/09/04 00:57:33;;;;;;;2.95;2.42;;;;;;;22.58;64.76;98097.72;5030978;28;20182;-58
2023/09/04 01:00:05;;;;;;;3.47;2.80;;;;;;;22.12;65.63;98062.09;5030761;28;20659;-58
2023/09/04 01:02:31;;;;;;;2.65;2.45;;;;;;;21.90;65.56;98057.78;5030888;28;20209;-58
2023/09/04 01:04:57;;;;;;;2.65;2.45;;;;;;;22.05;65.78;98098.09;5030749;28;20186;-58
2023/09/04 01:07:22;;;;;;;2.40;2.30;;;;;;;22.04;67.24;98102.53;5030994;28;20655;-58
2023/09/04 01:09:47;;;;;;;2.72;2.53;;;;;;;21.95;65.58;98100.19;5030636;28;20622;-58
2023/09/04 01:12:24;;;;;;;3.00;2.80;;;;;;;21.97;64.77;98098.22;5030047;28;20614;-58
2023/09/04 01:14:54;;;;;;;3.08;2.78;;;;;;;22.08;64.19;98114.38;5030579;28;20534;-58
2023/09/04 01:17:19;;;;;;;4.97;2.90;;;;;;;22.00;66.21;98111.00;5030591;28;20739;-58
2023/09/04 01:19:46;;;;;;;5.38;4.03;;;;;;;22.15;75.54;98125.78;5030503;28;20178;-58
2023/09/04 01:22:11;;;;;;;4.47;3.28;;;;;;;22.33;79.83;98123.56;5013827;28;20230;-58
2023/09/04 01:24:37;;;;;;;4.75;4.18;;;;;;;22.30;80.95;98104.69;5012576;28;20697;-58
2023/09/04 01:27:13;;;;;;;4.53;4.13;;;;;;;22.28;82.52;98110.16;5013069;28;20523;-58
2023/09/04 01:29:56;;;;;;;5.55;3.28;;;;;;;22.44;81.88;98112.59;5013175;28;20233;-58
2023/09/04 01:32:36;;;;;;;3.92;3.47;;;;;;;22.23;83.38;98116.97;5010429;28;20190;-58
2023/09/04 01:35:05;;;;;;;8.52;3.72;;;;;;;22.26;83.65;98121.91;5010529;28;20645;-58
2023/09/04 01:37:31;;;;;;;5.97;3.70;;;;;;;22.31;82.00;98090.53;4955166;28;20188;-58
2023/09/04 01:39:57;;;;;;;4.65;3.30;;;;;;;22.36;82.70;98112.69;4971385;28;20192;-58
2023/09/04 01:42:22;;;;;;;5.75;3.72;;;;;;;22.18;82.18;98085.91;4971385;28;20199;-58
2023/09/04 01:44:48;;;;;;;3.38;3.03;;;;;;;22.53;80.15;98097.47;4971348;28;20698;-58
2023/09/04 01:47:13;;;;;;;3.40;3.20;;;;;;;22.74;79.02;98119.41;4971179;28;20588;-58
2023/09/04 01:49:39;;;;;;;4.13;3.00;;;;;;;22.64;77.10;98081.16;4971175;28;20526;-58
2023/09/04 01:52:04;;;;;;;4.63;3.47;;;;;;;22.63;76.46;98076.88;4971066;28;20310;-58
2023/09/04 01:54:30;;;;;;;4.53;3.10;;;;;;;22.53;77.40;98068.47;4971139;28;20203;-58
2023/09/04 01:56:55;;;;;;;4.28;3.22;;;;;;;22.50;77.85;98092.56;4971007;28;20188;-58
2023/09/04 01:59:20;;;;;;;3.20;2.75;;;;;;;22.12;78.60;98064.72;4971000;28;20222;-58
2023/09/04 02:01:46;;;;;;;3.10;2.80;;;;;;;22.23;76.21;98101.16;4970983;28;20180;-58
2023/09/04 02:04:11;;;;;;;2.53;2.33;;;;;;;22.30;72.62;98104.69;4987427;28;20192;-58
2023/09/04 02:06:37;;;;;;;2.58;2.22;;;;;;;22.11;70.15;98076.28;4990300;28;20206;-58
2023/09/04 02:09:04;;;;;;;3.28;2.42;;;;;;;22.31;69.82;98098.44;5006139;28;20198;-58
2023/09/04 02:11:29;;;;;;;3.25;2.53;;;;;;;21.98;71.60;98049.78;5011238;28;20257;-57
2023/09/04 02:13:55;;;;;;;2.58;2.47;;;;;;;22.14;71.93;98073.28;5012243;28;20206;-58
2023/09/04 02:16:22;;;;;;;2.45;2.22;;;;;;;22.01;72.86;98065.22;5012099;28;20637;-57
2023/09/04 02:18:48;;;;;;;2.08;1.88;;;;;;;21.80;71.70;98047.53;5012032;28;20679;-58
2023/09/04 02:21:13;;;;;;;2.63;1.98;;;;;;;21.94;71.40;98067.78;5012390;28;20314;-57
2023/09/04 02:23:39;;;;;;;2.42;2.22;;;;;;;22.00;70.49;98064.41;5012099;28;20171;-57
2023/09/04 02:26:04;;;;;;;1.90;1.80;;;;;;;22.07;70.53;98064.47;5012017;28;20261;-57
2023/09/04 02:28:30;;;;;;;2.00;1.90;;;;;;;21.92;70.96;98048.69;5012010;28;20202;-57
2023/09/04 02:30:56;;;;;;;2.00;1.90;;;;;;;21.85;71.51;98039.91;5011809;28;20210;-58
2023/09/04 02:33:21;;;;;;;2.65;1.85;;;;;;;21.38;74.30;98023.66;5011931;28;20175;-58
2023/09/04 02:35:47;;;;;;;2.47;2.03;;;;;;;21.57;73.07;98057.31;5010961;28;20194;-57
2023/09/04 02:38:13;;;;;;;1.73;1.63;;;;;;;21.64;72.34;98049.53;5011496;28;20202;-57
2023/09/04 02:40:38;;;;;;;2.90;2.05;;;;;;;21.70;71.66;98033.84;5009070;28;20661;-57
2023/09/04 02:43:06;;;;;;;2.85;2.10;;;;;;;21.75;71.27;98054.34;5009224;28;20194;-58
2023/09/04 02:45:35;;;;;;;2.80;2.00;;;;;;;21.87;70.46;98052.88;5009176;28;20558;-58
2023/09/04 02:48:00;;;;;;;1.80;1.67;;;;;;;21.92;68.81;98029.44;5009138;28;20202;-58
2023/09/04 02:50:28;;;;;;;1.95;1.85;;;;;;;22.10;68.01;98053.56;5009005;28;20232;-58
2023/09/04 02:52:53;;;;;;;3.95;1.75;;;;;;;21.94;68.86;98048.50;5009088;28;20266;-58
2023/09/04 02:55:19;;;;;;;1.60;1.50;;;;;;;21.72;68.85;98023.09;5009025;28;20736;-58
2023/09/04 02:57:44;;;;;;;1.58;1.48;;;;;;;21.92;67.92;98024.97;5008895;28;20245;-58
2023/09/04 03:00:12;;;;;;;1.70;1.60;;;;;;;22.19;67.38;98047.16;5009009;28;20681;-58
2023/09/04 03:02:37;;;;;;;2.00;1.83;;;;;;;22.25;67.07;98039.34;5008895;28;20189;-58
2023/09/04 03:05:05;;;;;;;1.60;1.50;;;;;;;22.43;66.53;98038.94;5008869;28;20183;-58
2023/09/04 03:07:31;;;;;;;2.00;1.90;;;;;;;22.18;66.83;97998.09;5008935;28;20186;-58
2023/09/04 03:09:58;;;;;;;2.00;1.90;;;;;;;22.18;67.27;98003.38;5008829;28;20175;-58
2023/09/04 03:12:24;;;;;;;2.25;2.10;;;;;;;22.38;66.78;98018.38;5010006;28;20229;-58
2023/09/04 03:14:56;;;;;;;2.40;2.30;;;;;;;22.37;67.33;98029.94;5011219;28;20182;-58
2023/09/04 03:17:22;;;;;;;2.70;2.50;;;;;;;22.55;66.90;98029.53;5011234;28;20177;-58
2023/09/04 03:19:48;;;;;;;2.05;1.90;;;;;;;22.68;66.12;98021.75;5011179;28;20175;-58
2023/09/04 03:22:13;;;;;;;2.15;2.00;;;;;;;22.57;66.56;98009.06;5011207;28;20233;-58
2023/09/04 03:24:39;;;;;;;2.00;1.88;;;;;;;22.27;67.41;97995.16;5028202;28;20300;-58
2023/09/04 03:27:05;;;;;;;2.17;2.08;;;;;;;22.18;67.37;97984.91;5028224;28;20202;-58
2023/09/04 03:29:30;;;;;;;2.55;2.35;;;;;;;22.49;66.13;98001.28;5028334;28;20186;-58
2023/09/04 03:31:55;;;;;;;2.28;2.00;;;;;;;22.55;65.44;97989.97;5028292;28;20217;-58
2023/09/04 03:34:21;;;;;;;2.15;2.05;;;;;;;22.37;67.74;98024.66;5028312;28;20274;-58
2023/09/04 03:36:46;;;;;;;2.15;2.05;;;;;;;22.05;69.22;97998.78;5028552;28;20186;-58
2023/09/04 03:39:12;;;;;;;2.80;2.58;;;;;;;22.05;70.42;98025.16;5028180;28;20285;-58
2023/09/04 03:41:37;;;;;;;2.75;2.55;;;;;;;21.95;70.51;98024.63;5028238;28;20252;-58
2023/09/04 03:44:03;;;;;;;3.78;2.97;;;;;;;21.94;70.97;98028.25;5028259;28;20182;-58
2023/09/04 03:46:28;;;;;;;2.60;2.40;;;;;;;22.01;70.71;98018.59;5028527;28;20667;-58
2023/09/04 03:48:53;;;;;;;2.38;2.20;;;;;;;21.75;71.62;97999.88;5031624;28;20853;-58
2023/09/04 03:51:19;;;;;;;2.85;2.65;;;;;;;21.79;70.95;97989.78;5032077;28;20270;-58
2023/09/04 03:53:44;;;;;;;2.45;2.25;;;;;;;22.05;69.99;98019.06;5032068;28;20178;-58
2023/09/04 03:56:10;;;;;;;2.97;2.30;;;;;;;21.96;70.34;97999.09;5019377;28;20260;-58
2023/09/04 03:58:35;;;;;;;2.40;2.20;;;;;;;22.01;70.23;98007.25;5014419;28;20258;-58
2023/09/04 04:01:03;;;;;;;3.03;2.80;;;;;;;22.04;69.86;98001.63;5014729;28;20665;-58
2023/09/04 04:03:29;;;;;;;2.95;2.75;;;;;;;22.17;69.61;98005.22;5014619;28;20181;-58
2023/09/04 04:05:54;;;;;;;2.92;2.72;;;;;;;22.21;70.22;98019.63;5014632;28;20550;-58
2023/09/04 04:08:19;;;;;;;5.10;2.90;;;;;;;22.07;70.57;98011.75;5014530;28;20183;-58
2023/09/04 04:10:45;;;;;;;2.80;2.60;;;;;;;22.04;71.29;98022.69;5013647;28;20263;-58
2023/09/04 04:13:10;;;;;;;4.13;2.97;;;;;;;21.99;71.16;98025.91;5014540;28;20548;-58
2023/09/04 04:15:38;;;;;;;2.90;2.70;;;;;;;21.96;70.92;98010.44;5014474;28;20179;-58
2023/09/04 04:18:04;;;;;;;2.85;2.65;;;;;;;22.05;71.34;98040.13;5014475;28;20171;-58
2023/09/04 04:20:29;;;;;;;3.33;3.00;;;;;;;21.91;70.84;98001.47;5014472;28;20797;-58
2023/09/04 04:22:55;;;;;;;4.22;3.03;;;;;;;21.89;71.11;98014.00;5014310;28;20227;-58
2023/09/04 04:25:20;;;;;;;3.33;2.88;;;;;;;22.21;70.45;98050.47;5014540;28;20213;-58
2023/09/04 04:27:45;;;;;;;2.20;2.10;;;;;;;22.06;68.14;98018.03;5014201;28;20603;-58
2023/09/04 04:30:12;;;;;;;3.08;2.75;;;;;;;22.26;68.79;98040.19;5014005;28;20202;-58
2023/09/04 04:32:38;;;;;;;2.08;1.98;;;;;;;22.42;66.34;98032.00;5014103;28;20174;-58
2023/09/04 04:35:04;;;;;;;1.90;1.80;;;;;;;22.57;65.23;98024.88;5013986;28;20193;-58
2023/09/04 04:37:30;;;;;;;2.30;1.77;;;;;;;22.65;66.07;98036.13;5014061;28;20243;-58
2023/09/04 04:39:55;;;;;;;3.25;2.40;;;;;;;22.88;65.13;98054.38;5013909;28;20178;-58
2023/09/04 04:42:24;;;;;;;1.70;1.60;;;;;;;22.99;63.51;98056.50;5013935;28;20231;-58
2023/09/04 04:44:49;;;;;;;1.65;1.52;;;;;;;23.08;63.04;98055.34;5013898;28;20179;-58
2023/09/04 04:47:15;;;;;;;2.45;1.75;;;;;;;22.95;64.13;98037.59;5011480;28;20298;-58
2023/09/04 04:49:40;;;;;;;2.35;1.70;;;;;;;22.89;65.62;98032.28;5011338;28;20186;-58
2023/09/04 04:52:05;;;;;;;1.80;1.70;;;;;;;22.92;66.80;98047.72;5011209;28;20217;-58
2023/09/04 04:54:31;;;;;;;2.53;1.83;;;;;;;23.03;67.33;98081.50;5011347;28;20550;-58
2023/09/04 04:56:56;;;;;;;2.17;2.08;;;;;;;23.03;67.71;98076.22;5011524;28;20269;-58
2023/09/04 04:59:21;;;;;;;1.85;1.75;;;;;;;23.02;68.11;98071.97;5010222;28;20680;-58
2023/09/04 05:01:47;;;;;;;2.33;2.20;;;;;;;23.00;71.10;98087.16;5011062;28;20189;-58
2023/09/04 05:04:12;;;;;;;2.90;2.15;;;;;;;22.76;72.21;98061.16;5011126;28;20213;-57
2023/09/04 05:06:38;;;;;;;3.95;2.35;;;;;;;22.80;75.58;98072.97;5011010;28;20191;-58
2023/09/04 05:09:05;;;;;;;4.40;2.55;;;;;;;22.82;76.36;98097.34;5010969;28;20277;-57
2023/09/04 05:11:30;;;;;;;2.33;2.20;;;;;;;22.73;76.65;98088.75;5010140;28;20336;-57
2023/09/04 05:13:56;;;;;;;2.47;2.15;;;;;;;22.48;76.70;98068.19;5010926;28;20578;-57
2023/09/04 05:16:21;;;;;;;5.13;2.70;;;;;;;22.65;77.87;98117.91;5010897;28;20217;-57
2023/09/04 05:18:46;;;;;;;5.78;2.55;;;;;;;22.51;79.61;98113.50;5012392;28;20182;-57
2023/09/04 05:21:12;;;;;;;2.72;2.50;;;;;;;22.34;81.40;98084.88;5013482;28;20217;-57
2023/09/04 05:23:37;;;;;;;2.45;2.10;;;;;;;22.33;81.62;98085.88;5013209;28;20629;-57
2023/09/04 05:26:03;;;;;;;2.72;1.98;;;;;;;22.42;82.33;98092.66;5013404;28;20240;-57
2023/09/04 05:28:28;;;;;;;2.38;2.17;;;;;;;22.16;81.38;98066.00;5013048;28;20672;-57
2023/09/04 05:30:53;;;;;;;2.95;2.40;;;;;;;22.21;81.68;98088.16;5012952;28;20693;-58
2023/09/04 05:33:19;;;;;;;4.40;2.53;;;;;;;21.95;85.85;98108.94;5013007;28;20240;-57
2023/09/04 05:35:54;;;;;;;2.45;2.10;;;;;;;21.82;86.64;98085.06;5012928;28;20190;-57
2023/09/04 05:38:19;;;;;;;3.22;2.47;;;;;;;22.04;87.60;98109.66;5013002;28;20166;-57
2023/09/04 05:40:48;;;;;;;3.00;2.80;;;;;;;22.07;87.59;98090.81;5012872;28;20201;-57
2023/09/04 05:43:14;;;;;;;6.35;3.00;;;;;;;22.10;88.67;98079.94;5012856;28;20174;-58
2023/09/04 05:45:39;;;;;;;6.72;3.08;;;;;;;22.35;88.75;98102.31;5012779;28;20265;-57
2023/09/04 05:48:06;;;;;;;3.30;3.00;;;;;;;22.24;89.26;98079.91;5012859;28;20217;-57
2023/09/04 05:50:31;;;;;;;4.78;3.28;;;;;;;22.34;90.08;98092.78;5012573;28;20313;-57
2023/09/04 05:52:57;;;;;;;4.43;3.03;;;;;;;22.49;89.62;98117.31;5012659;28;20174;-58
2023/09/04 05:55:22;;;;;;;3.22;2.85;;;;;;;22.44;90.69;98117.06;5012501;28;20186;-58
2023/09/04 05:57:48;;;;;;;2.83;2.38;;;;;;;22.39;89.88;98109.69;5012553;28;20262;-58
2023/09/04 06:00:13;;;;;;;3.95;3.00;;;;;;;22.34;89.22;98108.59;5012523;28;20182;-57
2023/09/04 06:02:41;;;;;;;4.50;3.03;;;;;;;22.39;90.05;98128.13;5012196;28;20170;-57
2023/09/04 06:05:07;;;;;;;4.13;2.88;;;;;;;22.27;90.76;98118.25;5012485;28;20174;-57
2023/09/04 06:07:34;;;;;;;4.68;3.58;;;;;;;22.08;94.11;98124.91;5012158;28;20602;-57
2023/09/04 06:09:59;;;;;;;3.72;3.42;;;;;;;21.44;98.77;98109.00;5016679;28;20190;-58
2023/09/04 06:12:25;;;;;;;4.80;3.45;;;;;;;21.39;100.00;98119.25;5028316;28;20236;-58
2023/09/04 06:14:50;;;;;;;6.25;4.03;;;;;;;21.05;100.00;98114.44;5031919;28;20656;-59
2023/09/04 06:17:15;;;;;;;5.28;4.22;;;;;;;21.08;100.00;98106.19;5024624;28;20190;-58
2023/09/04 06:19:41;;;;;;;4.38;3.95;;;;;;;21.03;100.00;98111.19;5012099;28;20553;-58
2023/09/04 06:22:06;;;;;;;8.77;4.00;;;;;;;21.16;100.00;98134.25;5012330;28;20193;-58
2023/09/04 06:24:32;;;;;;;4.85;4.20;;;;;;;20.56;100.00;98096.53;5011978;28;20634;-58
2023/09/04 06:26:57;;;;;;;4.95;4.50;;;;;;;20.67;100.00;98119.81;5011977;28;20183;-58
2023/09/04 06:29:23;;;;;;;6.22;5.45;;;;;;;20.18;100.00;98097.44;5011944;28;20708;-58
2023/09/04 06:31:48;;;;;;;6.40;4.60;;;;;;;20.24;100.00;98113.34;5011681;28;20580;-58
2023/09/04 06:34:14;;;;;;;6.70;5.32;;;;;;;20.41;100.00;98112.25;5011877;28;20170;-58
2023/09/04 06:36:39;;;;;;;6.57;5.57;;;;;;;20.45;100.00;98099.59;5011661;28;20170;-59
2023/09/04 06:39:06;;;;;;;7.00;5.45;;;;;;;20.52;100.00;98129.44;5011504;28;20170;-58
2023/09/04 06:41:32;;;;;;;7.43;6.30;;;;;;;20.56;100.00;98109.69;5011768;28;20182;-58
2023/09/04 06:43:58;;;;;;;6.18;5.60;;;;;;;20.68;100.00;98138.03;5010900;28;20269;-58
2023/09/04 06:46:23;;;;;;;7.65;5.85;;;;;;;20.43;100.00;98160.22;5011933;28;20206;-58
2023/09/04 06:48:49;;;;;;;6.47;5.85;;;;;;;20.39;100.00;98163.38;5011961;28;20202;-57
2023/09/04 06:51:16;;;;;;;9.70;5.93;;;;;;;20.26;100.00;98158.66;5011534;28;20581;-57
2023/09/04 06:53:42;;;;;;;6.90;5.45;;;;;;;20.08;100.00;98160.72;5011606;28;20539;-58
2023/09/04 06:56:07;;;;;;;9.85;5.30;;;;;;;20.28;100.00;98166.38;5011539;28;20237;-57
2023/09/04 06:58:32;;;;;;;7.32;5.47;;;;;;;20.13;100.00;98137.38;5011859;28;20202;-58
2023/09/04 07:01:01;;;;;;;5.85;4.60;;;;;;;20.36;100.00;98166.34;5011244;28;20636;-58
2023/09/04 07:03:26;;;;;;;9.60;4.80;;;;;;;20.06;100.00;98151.34;5028482;28;20573;-57
2023/09/04 07:05:52;;;;;;;5.35;4.55;;;;;;;20.19;100.00;98141.13;5028652;28;20205;-57
2023/09/04 07:08:17;;;;;;;8.35;5.50;;;;;;;20.35;100.00;98156.81;5028540;28;20182;-57
2023/09/04 07:10:43;;;;;;;7.45;4.95;;;;;;;20.38;100.00;98166.97;5027851;28;20241;-58
2023/09/04 07:13:08;;;;;;;9.07;5.97;;;;;;;20.19;100.00;98141.13;5028938;28;20692;-57
2023/09/04 07:15:33;;;;;;;7.78;4.93;;;;;;;20.51;100.00;98185.66;5028548;28;20687;-58
2023/09/04 07:18:00;;;;;;;7.05;6.35;;;;;;;20.26;100.00;98156.03;5028450;28;20196;-57
2023/09/04 07:20:28;;;;;;;9.23;6.63;;;;;;;20.49;100.00;98190.25;5028485;28;20593;-57
2023/09/04 07:22:54;;;;;;;6.88;5.68;;;;;;;20.40;100.00;98170.25;5027957;28;20607;-57
2023/09/04 07:25:19;;;;;;;9.13;5.63;;;;;;;20.10;100.00;98194.69;5028394;28;20213;-57
2023/09/04 07:27:44;;;;;;;8.02;6.10;;;;;;;19.68;100.00;98152.09;5028412;28;20644;-57
2023/09/04 07:30:11;;;;;;;9.25;5.68;;;;;;;19.82;100.00;98185.56;5028273;28;20349;-58
2023/09/04 07:32:37;;;;;;;8.18;5.82;;;;;;;19.85;100.00;98179.94;5028389;28;20185;-59
2023/09/04 07:35:03;;;;;;;7.60;5.50;;;;;;;19.76;100.00;98155.53;5015094;28;20186;-57
2023/09/04 07:37:29;;;;;;;12.98;6.65;;;;;;;19.79;100.00;98159.63;5010951;28;20228;-57
2023/09/04 07:39:54;;;;;;;8.15;5.72;;;;;;;19.77;100.00;98151.09;5011064;28;20554;-58
2023/09/04 07:42:21;;;;;;;7.75;6.03;;;;;;;20.02;100.00;98186.78;5011001;28;20645;-58
2023/09/04 07:44:46;;;;;;;7.38;6.03;;;;;;;20.19;100.00;98177.91;5011033;28;20174;-58
2023/09/04 07:47:12;;;;;;;12.60;7.10;;;;;;;20.33;100.00;98151.72;5011310;28;20181;-58
2023/09/04 07:49:37;;;;;;;7.78;5.60;;;;;;;20.61;100.00;98160.78;5010703;28;20186;-57
2023/09/04 07:52:03;;;;;;;9.70;6.38;;;;;;;20.75;100.00;98156.59;5010877;28;20612;-57
2023/09/04 07:54:29;;;;;;;8.80;6.78;;;;;;;20.70;100.00;98132.63;5010969;28;20177;-58
2023/09/04 07:56:54;;;;;;;12.30;7.13;;;;;;;20.82;100.00;98168.88;5010817;28;20174;-58
2023/09/04 07:59:20;;;;;;;9.23;6.68;;;;;;;20.89;100.00;98158.47;5010902;28;20185;-58
2023/09/04 08:01:45;;;;;;;7.45;6.25;;;;;;;20.99;100.00;98138.81;5010883;28;20187;-57
2023/09/04 08:04:13;;;;;;;8.18;5.63;;;;;;;21.39;100.00;98174.53;5010701;28;20181;-57
2023/09/04 08:06:38;;;;;;;8.80;6.85;;;;;;;21.01;100.00;98149.19;5010855;28;20248;-57
2023/09/04 08:09:04;;;;;;;7.97;6.13;;;;;;;20.85;100.00;98183.44;5010703;28;20645;-57
2023/09/04 08:11:29;;;;;;;8.70;7.38;;;;;;;20.76;100.00;98166.09;5010578;28;20210;-57
2023/09/04 08:13:55;;;;;;;9.48;6.93;;;;;;;20.84;100.00;98190.53;5010740;28;20175;-57
2023/09/04 08:16:20;;;;;;;8.70;6.30;;;;;;;20.69;100.00;98180.94;5010767;28;20175;-57
2023/09/04 08:18:45;;;;;;;4.93;4.47;;;;;;;20.81;100.00;98182.19;5010345;28;20645;-57
2023/09/04 08:21:11;;;;;;;4.63;4.05;;;;;;;20.91;100.00;98182.78;5010559;28;20233;-57
2023/09/04 08:23:36;;;;;;;4.43;4.10;;;;;;;20.70;100.00;98172.84;5010451;28;20549;-57
2023/09/04 08:26:03;;;;;;;7.82;3.67;;;;;;;20.77;100.00;98194.03;5010570;28;20254;-58
2023/09/04 08:28:29;;;;;;;5.95;4.35;;;;;;;20.78;100.00;98179.88;5010467;28;20618;-58
2023/09/04 08:30:55;;;;;;;5.82;4.00;;;;;;;20.63;100.00;98161.41;5010104;28;20229;-58
2023/09/04 08:33:21;;;;;;;4.70;4.30;;;;;;;20.51;100.00;98167.25;5010539;28;20204;-57
2023/09/04 08:35:46;;;;;;;5.35;4.85;;;;;;;20.67;100.00;98172.38;5013315;28;20178;-57
2023/09/04 08:38:12;;;;;;;7.97;5.65;;;;;;;20.85;100.00;98165.88;5014196;28;20240;-57
2023/09/04 08:40:40;;;;;;;6.05;5.55;;;;;;;21.07;100.00;98180.03;5013983;28;20218;-58
2023/09/04 08:43:07;;;;;;;8.18;5.68;;;;;;;21.11;100.00;98182.16;5013920;28;20202;-57
2023/09/04 08:45:39;;;;;;;6.65;6.00;;;;;;;21.07;100.00;98193.19;5013907;28;20178;-57
2023/09/04 08:48:06;;;;;;;9.07;6.30;;;;;;;20.78;100.00;98164.94;5013764;28;20676;-57
2023/09/04 08:50:31;;;;;;;5.97;5.38;;;;;;;20.76;100.00;98201.09;5013652;28;20688;-57
2023/09/04 08:52:57;;;;;;;11.40;6.43;;;;;;;20.52;100.00;98179.41;5013979;28;20270;-57
2023/09/04 08:55:22;;;;;;;9.05;6.05;;;;;;;20.48;100.00;98196.50;5013735;28;20573;-57
2023/09/04 08:57:48;;;;;;;7.63;5.20;;;;;;;20.18;100.00;98197.28;5013666;28;20261;-57
2023/09/04 09:00:16;;;;;;;7.18;6.25;;;;;;;19.83;100.00;98177.50;5013629;28;20182;-56
2023/09/04 09:02:45;;;;;;;8.93;5.22;;;;;;;19.99;100.00;98202.91;5030548;28;20658;-58
2023/09/04 09:05:16;;;;;;;10.00;6.22;;;;;;;19.70;100.00;98165.91;5030724;28;20190;-58
2023/09/04 09:07:43;;;;;;;10.18;6.88;;;;;;;19.70;100.00;98166.69;5030975;28;20243;-58
2023/09/04 09:10:14;;;;;;;9.10;7.07;;;;;;;19.75;100.00;98167.00;5030613;28;20182;-59
2023/09/04 09:12:39;;;;;;;11.32;7.70;;;;;;;20.01;100.00;98172.03;5030582;28;20194;-58
2023/09/04 09:15:05;;;;;;;10.98;7.63;;;;;;;20.50;100.00;98207.66;5030666;28;20203;-58
2023/09/04 09:17:30;;;;;;;10.88;8.15;;;;;;;20.72;100.00;98207.72;5030499;28;20190;-59
2023/09/04 09:19:56;;;;;;;12.90;8.57;;;;;;;20.58;100.00;98171.63;5030549;28;20182;-59
2023/09/04 09:22:22;;;;;;;10.50;7.47;;;;;;;20.82;100.00;98208.31;5030524;28;20683;-58
2023/09/04 09:24:56;;;;;;;12.48;7.22;;;;;;;20.82;100.00;98192.53;5030464;28;20273;-59
2023/09/04 09:27:23;;;;;;;10.65;6.85;;;;;;;20.91;100.00;98201.19;5030375;28;20181;-58
2023/09/04 09:29:49;;;;;;;9.88;6.15;;;;;;;21.12;100.00;98209.28;5030395;28;20674;-58
2023/09/04 09:32:19;;;;;;;8.13;6.22;;;;;;;21.23;100.00;98206.25;5030218;28;20209;-58
2023/09/04 09:34:53;;;;;;;3.83;3.47;;;;;;;21.13;100.00;98169.66;5013459;28;20191;-58
2023/09/04 09:37:19;;;;;;;3.83;3.53;;;;;;;21.11;100.00;98170.81;5012896;28;20273;-58
2023/09/04 09:39:44;;;;;;;5.32;4.13;;;;;;;21.20;100.00;98180.25;5012890;28;20185;-58
2023/09/04 09:42:10;;;;;;;3.97;3.58;;;;;;;21.30;100.00;98204.53;5012770;28;20183;-58
2023/09/04 09:44:35;;;;;;;4.97;3.70;;;;;;;21.16;100.00;98190.31;5012652;28;20608;-58
2023/09/04 09:47:01;;;;;;;5.30;3.65;;;;;;;20.95;100.00;98178.81;5012243;28;20691;-58
2023/09/04 09:49:27;;;;;;;4.20;3.90;;;;;;;20.98;100.00;98186.38;5012485;28;20224;-58
2023/09/04 09:51:56;;;;;;;4.70;3.30;;;;;;;21.01;100.00;98172.84;5012679;28;20230;-58
2023/09/04 09:54:39;;;;;;;3.38;3.08;;;;;;;21.05;100.00;98208.34;5012980;28;20257;-58
2023/09/04 09:57:09;;;;;;;3.92;2.47;;;;;;;20.93;100.00;98181.63;5012554;28;20224;-56
2023/09/04 09:59:41;;;;;;;3.60;2.90;;;;;;;20.79;100.00;98163.09;5012508;28;20496;-58
2023/09/04 10:02:07;;;;;;;3.17;2.97;;;;;;;21.08;100.00;98193.03;5029695;28;20720;-57
2023/09/04 10:04:34;;;;;;;2.83;2.63;;;;;;;21.07;100.00;98169.53;5029666;28;20266;-57
2023/09/04 10:07:02;;;;;;;3.80;3.05;;;;;;;20.96;100.00;98147.09;5029858;28;20197;-57
2023/09/04 10:09:30;;;;;;;3.30;3.00;;;;;;;21.23;100.00;98175.50;5029645;28;20181;-58
2023/09/04 10:12:11;;;;;;;2.97;2.70;;;;;;;21.13;100.00;98181.97;5029351;28;20218;-58
2023/09/04 10:14:41;;;;;;;3.30;2.88;;;;;;;21.25;100.00;98189.28;5029584;28;20264;-58
2023/09/04 10:17:14;;;;;;;2.95;2.75;;;;;;;20.98;100.00;98176.66;5029434;28;20182;-58
2023/09/04 10:19:42;;;;;;;3.45;3.15;;;;;;;20.91;100.00;98153.84;5029469;28;20186;-58
2023/09/04 10:22:14;;;;;;;3.00;2.80;;;;;;;21.20;100.00;98175.00;5029075;28;20213;-58
2023/09/04 10:25:00;;;;;;;3.50;2.65;;;;;;;21.48;100.00;98189.25;5029387;28;20190;-58
2023/09/04 10:27:29;;;;;;;6.60;3.08;;;;;;;21.60;100.00;98196.53;4970022;28;20599;-59
2023/09/04 10:30:05;;;;;;;3.00;2.78;;;;;;;21.56;100.00;98174.19;4970463;28;20761;-58
2023/09/04 10:32:30;;;;;;;3.13;2.92;;;;;;;21.68;100.00;98196.47;4960464;28;20265;-58
2023/09/04 10:34:56;;;;;;;3.28;3.08;;;;;;;21.52;100.00;98201.06;4931988;29;20280;-58
2023/09/04 10:37:26;;;;;;;3.13;2.88;;;;;;;21.44;100.00;98193.25;4931947;29;20508;-58
2023/09/04 10:39:53;;;;;;;3.65;3.35;;;;;;;21.31;100.00;98177.22;4938727;28;20760;-58
2023/09/04 10:42:20;;;;;;;8.02;3.67;;;;;;;21.18;100.00;98180.47;4950804;28;20184;-58
2023/09/04 10:44:47;;;;;;;4.18;3.67;;;;;;;21.08;100.00;98187.78;4951010;28;20531;-58
2023/09/04 10:47:14;;;;;;;4.18;3.35;;;;;;;21.08;100.00;98158.00;4950740;28;20192;-58
2023/09/04 10:49:41;;;;;;;3.60;3.25;;;;;;;21.14;100.00;98171.28;4950846;28;20200;-57
2023/09/04 10:52:08;;;;;;;7.25;3.72;;;;;;;21.01;100.00;98157.06;4950565;28;20220;-58
2023/09/04 10:54:33;;;;;;;3.60;3.30;;;;;;;21.02;100.00;98150.81;4950707;28;20252;-58
2023/09/04 10:57:01;;;;;;;5.05;3.33;;;;;;;21.05;100.00;98182.84;4949931;28;20689;-58
2023/09/04 10:59:27;;;;;;;3.67;3.38;;;;;;;20.95;100.00;98191.97;4966475;28;20290;-58
2023/09/04 11:01:53;;;;;;;3.13;2.92;;;;;;;20.63;100.00;98153.53;4969966;28;20250;-58
2023/09/04 11:04:34;;;;;;;2.90;2.70;;;;;;;20.36;100.00;98187.34;4986299;28;20198;-58
2023/09/04 11:07:35;;;;;;;3.42;3.13;;;;;;;20.08;100.00;98186.97;5011374;28;20261;-58
2023/09/04 11:10:06;;;;;;;4.60;3.20;;;;;;;19.68;100.00;98175.72;4969745;28;20219;-58
2023/09/04 11:12:35;;;;;;;3.15;2.90;;;;;;;19.13;100.00;98141.47;4969669;28;20230;-58
2023/09/04 11:15:01;;;;;;;3.72;3.40;;;;;;;19.46;100.00;98168.56;4969954;28;20340;-59
2023/09/04 11:17:28;;;;;;;3.25;2.78;;;;;;;19.44;100.00;98166.09;4969767;28;20180;-57
2023/09/04 11:19:54;;;;;;;3.40;3.10;;;;;;;19.15;100.00;98159.69;4969483;28;20262;-58
2023/09/04 11:22:21;;;;;;;3.42;3.13;;;;;;;19.20;100.00;98165.25;4968351;28;20183;-59
2023/09/04 11:24:47;;;;;;;3.50;3.20;;;;;;;19.60;100.00;98183.63;4967929;28;20222;-58
2023/09/04 11:27:12;;;;;;;3.47;3.13;;;;;;;19.84;100.00;98178.31;4969066;28;20184;-58